Capitol Logistics 586




RJAA
Tokyo-Narita International Airport
Tokyo, JP
PGUM
Guam International Airport
Guam, GU

Activity Log

Date Flight Route Aircraft Duration
09/09/2019 CPX304 N0467F350 OLVAN1 OLVAN Y823 MERED Y821 ADKAK G223 DAGDA A337 TEGOD/N0462F360 G205 UNZ B763 3h 29m

Route Details

Aircraft Information
Group: Trans-Pacific Ops
Types: B744,B763,MD11
Route Data
Demand: V
Distance: 1360nm
Duration: 3h 39m
Recm'd Route: OLVAN2 SAMUS Y84 HCE Y840 SABRI B586 WINZR
Origin Wx: RJAA 272030Z AUTO VRB02KT 9999 NSC 17/16 Q0999 NOSIG RMK A2952
Dest. Wx: PGUM 272054Z 07008KT 10SM BKN060 26/24 A2988 RMK AO2 SLP112 60001 T02610244 53010 $
Notes:

Financial History
Total Freight: 78,202lbs
Average Load: 78,202lbs/flt
Fuel Used: 32,589lbs
Avg. Fuel Used: 32,589lbs/flt
Fuel Expense: $26,071
Avg. Fuel Expense: $26,071
Avg. Fuel Cost: $0.80/lbs
Total Gross Income: $123,559
Pilot Pay: $149
Total Expenses: $13,396
Total Revenue: $83,500
Average Revenue: $123,559.00